sensor_id;sensor_type;location;lat;lon;timestamp;temperature;humidity
59660;DHT22;45534;52.690;6.268;2023-07-13T00:01:16;16.40;99.90
59660;DHT22;45534;52.690;6.268;2023-07-13T00:03:42;16.30;99.90
59660;DHT22;45534;52.690;6.268;2023-07-13T00:06:08;16.30;99.90
59660;DHT22;45534;52.690;6.268;2023-07-13T00:08:34;16.30;99.90
59660;DHT22;45534;52.690;6.268;2023-07-13T00:11:01;16.30;99.90
59660;DHT22;45534;52.690;6.268;2023-07-13T00:13:28;16.30;99.90
59660;DHT22;45534;52.690;6.268;2023-07-13T00:15:54;16.20;99.90
59660;DHT22;45534;52.690;6.268;2023-07-13T00:18:21;16.20;99.90
59660;DHT22;45534;52.690;6.268;2023-07-13T00:20:47;16.20;99.90
59660;DHT22;45534;52.690;6.268;2023-07-13T00:23:13;16.20;99.90
59660;DHT22;45534;52.690;6.268;2023-07-13T00:25:39;16.20;99.90
59660;DHT22;45534;52.690;6.268;2023-07-13T00:28:05;16.20;99.90
59660;DHT22;45534;52.690;6.268;2023-07-13T00:30:31;16.20;99.90
59660;DHT22;45534;52.690;6.268;2023-07-13T00:32:57;16.10;99.90
59660;DHT22;45534;52.690;6.268;2023-07-13T00:35:23;16.10;99.90
59660;DHT22;45534;52.690;6.268;2023-07-13T00:37:49;16.10;99.90
59660;DHT22;45534;52.690;6.268;2023-07-13T00:40:16;16.00;99.90
59660;DHT22;45534;52.690;6.268;2023-07-13T00:42:42;16.00;99.90
59660;DHT22;45534;52.690;6.268;2023-07-13T00:47:55;16.10;99.90
59660;DHT22;45534;52.690;6.268;2023-07-13T00:50:22;16.10;99.90
59660;DHT22;45534;52.690;6.268;2023-07-13T00:52:52;16.10;99.90
59660;DHT22;45534;52.690;6.268;2023-07-13T00:55:20;16.10;99.90
59660;DHT22;45534;52.690;6.268;2023-07-13T00:57:46;16.10;99.90
59660;DHT22;45534;52.690;6.268;2023-07-13T01:00:13;16.00;99.90
59660;DHT22;45534;52.690;6.268;2023-07-13T01:02:43;16.10;99.90
59660;DHT22;45534;52.690;6.268;2023-07-13T01:05:11;16.00;99.90
59660;DHT22;45534;52.690;6.268;2023-07-13T01:07:37;16.00;99.90
59660;DHT22;45534;52.690;6.268;2023-07-13T01:10:04;16.00;99.90
59660;DHT22;45534;52.690;6.268;2023-07-13T01:12:29;16.00;99.90
59660;DHT22;45534;52.690;6.268;2023-07-13T01:15:00;16.00;99.90
59660;DHT22;45534;52.690;6.268;2023-07-13T01:17:27;16.00;99.90
59660;DHT22;45534;52.690;6.268;2023-07-13T01:19:53;16.00;99.90
59660;DHT22;45534;52.690;6.268;2023-07-13T01:22:19;16.10;99.90
59660;DHT22;45534;52.690;6.268;2023-07-13T01:24:50;16.10;99.90
59660;DHT22;45534;52.690;6.268;2023-07-13T01:27:21;16.10;99.90
59660;DHT22;45534;52.690;6.268;2023-07-13T01:29:48;16.10;99.90
59660;DHT22;45534;52.690;6.268;2023-07-13T01:32:17;16.10;99.90
59660;DHT22;45534;52.690;6.268;2023-07-13T01:34:48;16.10;99.90
59660;DHT22;45534;52.690;6.268;2023-07-13T01:37:14;16.10;99.90
59660;DHT22;45534;52.690;6.268;2023-07-13T01:39:40;16.10;99.90
59660;DHT22;45534;52.690;6.268;2023-07-13T01:42:05;16.10;99.90
59660;DHT22;45534;52.690;6.268;2023-07-13T01:44:31;16.10;99.90
59660;DHT22;45534;52.690;6.268;2023-07-13T01:46:57;16.00;99.90
59660;DHT22;45534;52.690;6.268;2023-07-13T01:49:23;16.00;99.90
59660;DHT22;45534;52.690;6.268;2023-07-13T01:51:48;16.00;99.90
59660;DHT22;45534;52.690;6.268;2023-07-13T01:54:14;15.90;99.90
59660;DHT22;45534;52.690;6.268;2023-07-13T01:56:40;15.90;99.90
59660;DHT22;45534;52.690;6.268;2023-07-13T01:59:08;15.90;99.90
59660;DHT22;45534;52.690;6.268;2023-07-13T02:01:34;15.80;99.90
59660;DHT22;45534;52.690;6.268;2023-07-13T02:03:59;15.80;99.90
59660;DHT22;45534;52.690;6.268;2023-07-13T02:06:25;15.70;99.90
59660;DHT22;45534;52.690;6.268;2023-07-13T02:08:51;15.70;99.90
59660;DHT22;45534;52.690;6.268;2023-07-13T02:11:16;15.70;99.90
59660;DHT22;45534;52.690;6.268;2023-07-13T02:13:42;15.60;99.90
59660;DHT22;45534;52.690;6.268;2023-07-13T02:16:08;15.60;99.90
59660;DHT22;45534;52.690;6.268;2023-07-13T02:18:34;15.60;99.90
59660;DHT22;45534;52.690;6.268;2023-07-13T02:21:00;15.50;99.90
59660;DHT22;45534;52.690;6.268;2023-07-13T02:23:25;15.50;99.90
59660;DHT22;45534;52.690;6.268;2023-07-13T02:25:55;15.40;99.90
59660;DHT22;45534;52.690;6.268;2023-07-13T02:28:21;15.40;99.90
59660;DHT22;45534;52.690;6.268;2023-07-13T02:30:47;15.40;99.90
59660;DHT22;45534;52.690;6.268;2023-07-13T02:33:12;15.40;99.90
59660;DHT22;45534;52.690;6.268;2023-07-13T02:35:38;15.30;99.90
59660;DHT22;45534;52.690;6.268;2023-07-13T02:38:04;15.30;99.90
59660;DHT22;45534;52.690;6.268;2023-07-13T02:40:30;15.30;99.90
59660;DHT22;45534;52.690;6.268;2023-07-13T02:42:59;15.20;99.90
59660;DHT22;45534;52.690;6.268;2023-07-13T02:45:25;15.20;99.90
59660;DHT22;45534;52.690;6.268;2023-07-13T02:47:51;15.20;99.90
59660;DHT22;45534;52.690;6.268;2023-07-13T02:50:17;15.20;99.90
59660;DHT22;45534;52.690;6.268;2023-07-13T02:52:42;15.10;99.90
59660;DHT22;45534;52.690;6.268;2023-07-13T02:55:08;15.10;99.90
59660;DHT22;45534;52.690;6.268;2023-07-13T02:57:34;15.10;99.90
59660;DHT22;45534;52.690;6.268;2023-07-13T03:00:00;15.10;99.90
59660;DHT22;45534;52.690;6.268;2023-07-13T03:02:26;15.10;99.90
59660;DHT22;45534;52.690;6.268;2023-07-13T03:04:55;15.10;99.90
59660;DHT22;45534;52.690;6.268;2023-07-13T03:07:20;15.10;99.90
59660;DHT22;45534;52.690;6.268;2023-07-13T03:09:46;15.10;99.90
59660;DHT22;45534;52.690;6.268;2023-07-13T03:12:12;15.10;99.90
59660;DHT22;45534;52.690;6.268;2023-07-13T03:14:37;15.10;99.90
59660;DHT22;45534;52.690;6.268;2023-07-13T03:17:03;15.10;99.90
59660;DHT22;45534;52.690;6.268;2023-07-13T03:19:29;15.10;99.90
59660;DHT22;45534;52.690;6.268;2023-07-13T03:21:55;15.10;99.90
59660;DHT22;45534;52.690;6.268;2023-07-13T03:24:20;15.10;99.90
59660;DHT22;45534;52.690;6.268;2023-07-13T03:26:48;15.10;99.90
59660;DHT22;45534;52.690;6.268;2023-07-13T03:29:14;15.10;99.90
59660;DHT22;45534;52.690;6.268;2023-07-13T03:31:40;15.10;99.90
59660;DHT22;45534;52.690;6.268;2023-07-13T03:34:05;15.10;99.90
59660;DHT22;45534;52.690;6.268;2023-07-13T03:36:32;15.10;99.90
59660;DHT22;45534;52.690;6.268;2023-07-13T03:39:00;15.10;99.90
59660;DHT22;45534;52.690;6.268;2023-07-13T03:41:26;15.10;99.90
59660;DHT22;45534;52.690;6.268;2023-07-13T03:43:52;15.10;99.90
59660;DHT22;45534;52.690;6.268;2023-07-13T03:46:18;15.10;99.90
59660;DHT22;45534;52.690;6.268;2023-07-13T03:48:45;15.10;99.90
59660;DHT22;45534;52.690;6.268;2023-07-13T03:51:12;15.10;99.90
59660;DHT22;45534;52.690;6.268;2023-07-13T03:53:42;15.10;99.90
59660;DHT22;45534;52.690;6.268;2023-07-13T03:56:08;15.00;99.90
59660;DHT22;45534;52.690;6.268;2023-07-13T03:58:39;15.00;99.90
59660;DHT22;45534;52.690;6.268;2023-07-13T04:01:06;15.00;99.90
59660;DHT22;45534;52.690;6.268;2023-07-13T04:03:33;14.90;99.90
59660;DHT22;45534;52.690;6.268;2023-07-13T04:06:00;14.90;99.90
59660;DHT22;45534;52.690;6.268;2023-07-13T04:08:27;14.90;99.90
59660;DHT22;45534;52.690;6.268;2023-07-13T04:10:54;14.90;99.90
59660;DHT22;45534;52.690;6.268;2023-07-13T04:13:20;14.90;99.90
59660;DHT22;45534;52.690;6.268;2023-07-13T04:15:45;14.90;99.90
59660;DHT22;45534;52.690;6.268;2023-07-13T04:18:11;14.90;99.90
59660;DHT22;45534;52.690;6.268;2023-07-13T04:20:37;14.90;99.90
59660;DHT22;45534;52.690;6.268;2023-07-13T04:23:03;14.90;99.90
59660;DHT22;45534;52.690;6.268;2023-07-13T04:25:28;14.90;99.90
59660;DHT22;45534;52.690;6.268;2023-07-13T04:27:54;15.00;99.90
59660;DHT22;45534;52.690;6.268;2023-07-13T04:30:20;15.00;99.90
59660;DHT22;45534;52.690;6.268;2023-07-13T04:32:47;15.00;99.90
59660;DHT22;45534;52.690;6.268;2023-07-13T04:35:13;15.00;99.90
59660;DHT22;45534;52.690;6.268;2023-07-13T04:37:40;15.00;99.90
59660;DHT22;45534;52.690;6.268;2023-07-13T04:40:06;15.00;99.90
59660;DHT22;45534;52.690;6.268;2023-07-13T04:42:35;15.00;99.90
59660;DHT22;45534;52.690;6.268;2023-07-13T04:45:01;15.00;99.90
59660;DHT22;45534;52.690;6.268;2023-07-13T04:47:26;15.00;99.90
59660;DHT22;45534;52.690;6.268;2023-07-13T04:49:55;15.10;99.90
59660;DHT22;45534;52.690;6.268;2023-07-13T04:52:20;15.10;99.90
59660;DHT22;45534;52.690;6.268;2023-07-13T04:54:46;15.20;99.90
59660;DHT22;45534;52.690;6.268;2023-07-13T04:57:12;15.30;99.90
59660;DHT22;45534;52.690;6.268;2023-07-13T04:59:38;15.30;99.90
59660;DHT22;45534;52.690;6.268;2023-07-13T05:02:03;15.30;99.90
59660;DHT22;45534;52.690;6.268;2023-07-13T05:04:30;15.40;99.90
59660;DHT22;45534;52.690;6.268;2023-07-13T05:06:55;15.40;99.90
59660;DHT22;45534;52.690;6.268;2023-07-13T05:09:21;15.40;99.90
59660;DHT22;45534;52.690;6.268;2023-07-13T05:11:47;15.40;99.90
59660;DHT22;45534;52.690;6.268;2023-07-13T05:14:13;15.40;99.90
59660;DHT22;45534;52.690;6.268;2023-07-13T05:16:39;15.40;99.90
59660;DHT22;45534;52.690;6.268;2023-07-13T05:19:05;15.40;99.90
59660;DHT22;45534;52.690;6.268;2023-07-13T05:21:30;15.50;99.90
59660;DHT22;45534;52.690;6.268;2023-07-13T05:23:56;15.50;99.90
59660;DHT22;45534;52.690;6.268;2023-07-13T05:26:22;15.60;99.90
59660;DHT22;45534;52.690;6.268;2023-07-13T05:28:47;15.60;99.90
59660;DHT22;45534;52.690;6.268;2023-07-13T05:31:13;15.60;99.90
59660;DHT22;45534;52.690;6.268;2023-07-13T05:33:39;15.70;99.90
59660;DHT22;45534;52.690;6.268;2023-07-13T05:36:05;15.70;99.90
59660;DHT22;45534;52.690;6.268;2023-07-13T05:38:32;15.80;99.90
59660;DHT22;45534;52.690;6.268;2023-07-13T05:40:58;15.80;99.90
59660;DHT22;45534;52.690;6.268;2023-07-13T05:43:24;15.90;99.90
59660;DHT22;45534;52.690;6.268;2023-07-13T05:45:53;15.90;99.90
59660;DHT22;45534;52.690;6.268;2023-07-13T05:48:19;16.00;99.90
59660;DHT22;45534;52.690;6.268;2023-07-13T05:50:45;16.00;99.90
59660;DHT22;45534;52.690;6.268;2023-07-13T05:53:11;16.10;99.90
59660;DHT22;45534;52.690;6.268;2023-07-13T05:55:42;16.20;99.90
59660;DHT22;45534;52.690;6.268;2023-07-13T05:58:08;16.30;99.90
59660;DHT22;45534;52.690;6.268;2023-07-13T06:00:33;16.30;99.90
59660;DHT22;45534;52.690;6.268;2023-07-13T06:02:59;16.40;99.90
59660;DHT22;45534;52.690;6.268;2023-07-13T06:05:25;16.50;99.90
59660;DHT22;45534;52.690;6.268;2023-07-13T06:07:51;16.60;99.90
59660;DHT22;45534;52.690;6.268;2023-07-13T06:10:16;16.70;99.90
59660;DHT22;45534;52.690;6.268;2023-07-13T06:12:42;16.80;99.90
59660;DHT22;45534;52.690;6.268;2023-07-13T06:15:08;16.80;99.90
59660;DHT22;45534;52.690;6.268;2023-07-13T06:17:34;17.00;99.90
59660;DHT22;45534;52.690;6.268;2023-07-13T06:20:00;17.10;99.90
59660;DHT22;45534;52.690;6.268;2023-07-13T06:22:25;17.20;99.90
59660;DHT22;45534;52.690;6.268;2023-07-13T06:24:51;17.30;99.90
59660;DHT22;45534;52.690;6.268;2023-07-13T06:27:17;17.40;99.90
59660;DHT22;45534;52.690;6.268;2023-07-13T06:29:43;17.40;99.90
59660;DHT22;45534;52.690;6.268;2023-07-13T06:32:10;17.50;99.90
59660;DHT22;45534;52.690;6.268;2023-07-13T06:34:36;17.50;99.90
59660;DHT22;45534;52.690;6.268;2023-07-13T06:37:02;17.60;99.90
59660;DHT22;45534;52.690;6.268;2023-07-13T06:39:28;17.60;99.90
59660;DHT22;45534;52.690;6.268;2023-07-13T06:41:53;17.60;99.90
59660;DHT22;45534;52.690;6.268;2023-07-13T06:44:19;17.60;99.90
59660;DHT22;45534;52.690;6.268;2023-07-13T06:46:45;17.60;99.90
59660;DHT22;45534;52.690;6.268;2023-07-13T06:49:10;17.60;99.90
59660;DHT22;45534;52.690;6.268;2023-07-13T06:51:36;17.60;99.90
59660;DHT22;45534;52.690;6.268;2023-07-13T06:54:03;17.60;99.90
59660;DHT22;45534;52.690;6.268;2023-07-13T06:56:29;17.60;99.90
59660;DHT22;45534;52.690;6.268;2023-07-13T06:58:54;17.60;99.90
59660;DHT22;45534;52.690;6.268;2023-07-13T07:01:20;17.50;99.90
59660;DHT22;45534;52.690;6.268;2023-07-13T07:03:46;17.50;99.90
59660;DHT22;45534;52.690;6.268;2023-07-13T07:06:20;17.50;99.90
59660;DHT22;45534;52.690;6.268;2023-07-13T07:08:49;17.60;99.90
59660;DHT22;45534;52.690;6.268;2023-07-13T07:11:21;17.70;99.90
59660;DHT22;45534;52.690;6.268;2023-07-13T07:13:48;17.70;99.90
59660;DHT22;45534;52.690;6.268;2023-07-13T07:16:14;17.80;99.90
59660;DHT22;45534;52.690;6.268;2023-07-13T07:18:40;17.90;99.90
59660;DHT22;45534;52.690;6.268;2023-07-13T07:21:06;18.00;99.90
59660;DHT22;45534;52.690;6.268;2023-07-13T07:23:32;18.10;99.90
59660;DHT22;45534;52.690;6.268;2023-07-13T07:25:58;18.10;99.90
59660;DHT22;45534;52.690;6.268;2023-07-13T07:28:24;18.20;99.90
59660;DHT22;45534;52.690;6.268;2023-07-13T07:30:52;18.20;99.90
59660;DHT22;45534;52.690;6.268;2023-07-13T07:33:18;18.30;99.90
59660;DHT22;45534;52.690;6.268;2023-07-13T07:35:44;18.30;99.90
59660;DHT22;45534;52.690;6.268;2023-07-13T07:38:09;18.40;99.90
59660;DHT22;45534;52.690;6.268;2023-07-13T07:40:40;18.50;99.90
59660;DHT22;45534;52.690;6.268;2023-07-13T07:43:07;18.60;99.90
59660;DHT22;45534;52.690;6.268;2023-07-13T07:45:33;18.70;99.90
59660;DHT22;45534;52.690;6.268;2023-07-13T07:47:59;18.70;99.90
59660;DHT22;45534;52.690;6.268;2023-07-13T07:50:28;18.70;99.90
59660;DHT22;45534;52.690;6.268;2023-07-13T07:52:54;18.80;99.90
59660;DHT22;45534;52.690;6.268;2023-07-13T07:55:21;18.90;99.90
59660;DHT22;45534;52.690;6.268;2023-07-13T07:57:47;19.10;99.90
59660;DHT22;45534;52.690;6.268;2023-07-13T08:00:14;19.20;99.90
59660;DHT22;45534;52.690;6.268;2023-07-13T08:02:40;19.30;99.90
59660;DHT22;45534;52.690;6.268;2023-07-13T08:05:07;19.30;99.90
59660;DHT22;45534;52.690;6.268;2023-07-13T08:07:33;19.50;99.90
59660;DHT22;45534;52.690;6.268;2023-07-13T08:09:59;19.60;99.90
59660;DHT22;45534;52.690;6.268;2023-07-13T08:12:25;19.70;99.90
59660;DHT22;45534;52.690;6.268;2023-07-13T08:14:52;19.80;99.90
59660;DHT22;45534;52.690;6.268;2023-07-13T08:17:23;19.80;99.90
59660;DHT22;45534;52.690;6.268;2023-07-13T08:19:49;19.90;99.90
59660;DHT22;45534;52.690;6.268;2023-07-13T08:22:15;19.90;99.90
59660;DHT22;45534;52.690;6.268;2023-07-13T08:24:41;20.00;99.90
59660;DHT22;45534;52.690;6.268;2023-07-13T08:27:08;19.90;99.90
59660;DHT22;45534;52.690;6.268;2023-07-13T08:29:34;19.80;99.90
59660;DHT22;45534;52.690;6.268;2023-07-13T08:32:00;19.70;99.90
59660;DHT22;45534;52.690;6.268;2023-07-13T08:34:26;19.60;99.90
59660;DHT22;45534;52.690;6.268;2023-07-13T08:36:51;19.50;99.90
59660;DHT22;45534;52.690;6.268;2023-07-13T08:39:17;19.50;99.90
59660;DHT22;45534;52.690;6.268;2023-07-13T08:41:46;19.50;99.90
59660;DHT22;45534;52.690;6.268;2023-07-13T08:44:25;19.40;99.90
59660;DHT22;45534;52.690;6.268;2023-07-13T08:46:53;17.90;99.90
59660;DHT22;45534;52.690;6.268;2023-07-13T08:49:22;16.20;99.90
59660;DHT22;45534;52.690;6.268;2023-07-13T08:52:35;15.20;99.90
59660;DHT22;45534;52.690;6.268;2023-07-13T08:55:31;14.20;99.90
59660;DHT22;45534;52.690;6.268;2023-07-13T08:58:16;13.70;99.90
59660;DHT22;45534;52.690;6.268;2023-07-13T09:00:59;13.60;99.90
59660;DHT22;45534;52.690;6.268;2023-07-13T09:03:40;13.50;99.90
59660;DHT22;45534;52.690;6.268;2023-07-13T09:06:08;13.50;99.90
59660;DHT22;45534;52.690;6.268;2023-07-13T09:08:49;13.50;99.90
59660;DHT22;45534;52.690;6.268;2023-07-13T09:14:15;13.40;99.90
59660;DHT22;45534;52.690;6.268;2023-07-13T09:16:44;13.50;99.90
59660;DHT22;45534;52.690;6.268;2023-07-13T09:19:23;13.60;99.90
59660;DHT22;45534;52.690;6.268;2023-07-13T09:21:51;13.70;99.90
59660;DHT22;45534;52.690;6.268;2023-07-13T09:27:30;13.90;99.90
59660;DHT22;45534;52.690;6.268;2023-07-13T09:30:20;14.00;99.90
59660;DHT22;45534;52.690;6.268;2023-07-13T09:32:52;14.10;99.90
59660;DHT22;45534;52.690;6.268;2023-07-13T09:35:25;14.20;99.90
59660;DHT22;45534;52.690;6.268;2023-07-13T09:38:17;14.30;99.90
59660;DHT22;45534;52.690;6.268;2023-07-13T09:43:24;14.40;99.90
59660;DHT22;45534;52.690;6.268;2023-07-13T09:45:50;14.60;99.90
59660;DHT22;45534;52.690;6.268;2023-07-13T09:48:17;14.80;99.90
59660;DHT22;45534;52.690;6.268;2023-07-13T09:50:44;15.00;99.90
59660;DHT22;45534;52.690;6.268;2023-07-13T09:53:18;15.10;99.90
59660;DHT22;45534;52.690;6.268;2023-07-13T09:55:46;15.40;99.90
59660;DHT22;45534;52.690;6.268;2023-07-13T09:58:21;15.60;99.90
59660;DHT22;45534;52.690;6.268;2023-07-13T10:01:01;15.90;99.90
59660;DHT22;45534;52.690;6.268;2023-07-13T10:03:33;16.20;99.90
59660;DHT22;45534;52.690;6.268;2023-07-13T10:06:15;16.40;99.90
59660;DHT22;45534;52.690;6.268;2023-07-13T10:08:41;16.70;99.90
59660;DHT22;45534;52.690;6.268;2023-07-13T10:11:22;17.10;99.90
59660;DHT22;45534;52.690;6.268;2023-07-13T10:13:54;17.40;99.90
59660;DHT22;45534;52.690;6.268;2023-07-13T10:16:24;17.50;99.90
59660;DHT22;45534;52.690;6.268;2023-07-13T10:18:55;17.50;99.90
59660;DHT22;45534;52.690;6.268;2023-07-13T10:21:22;17.70;99.90
59660;DHT22;45534;52.690;6.268;2023-07-13T10:24:00;18.00;99.90
59660;DHT22;45534;52.690;6.268;2023-07-13T10:26:33;18.00;99.90
59660;DHT22;45534;52.690;6.268;2023-07-13T10:29:05;17.80;99.90
59660;DHT22;45534;52.690;6.268;2023-07-13T10:31:40;17.70;99.90
59660;DHT22;45534;52.690;6.268;2023-07-13T10:34:11;17.60;99.90
59660;DHT22;45534;52.690;6.268;2023-07-13T10:36:43;17.40;99.90
59660;DHT22;45534;52.690;6.268;2023-07-13T10:39:22;17.10;99.90
59660;DHT22;45534;52.690;6.268;2023-07-13T10:41:59;16.80;99.90
59660;DHT22;45534;52.690;6.268;2023-07-13T10:44:29;16.50;99.90
59660;DHT22;45534;52.690;6.268;2023-07-13T10:46:58;16.30;99.90
59660;DHT22;45534;52.690;6.268;2023-07-13T10:49:27;15.90;99.90
59660;DHT22;45534;52.690;6.268;2023-07-13T10:51:54;15.60;99.90
59660;DHT22;45534;52.690;6.268;2023-07-13T10:54:38;15.50;99.90
59660;DHT22;45534;52.690;6.268;2023-07-13T10:57:20;15.40;99.90
59660;DHT22;45534;52.690;6.268;2023-07-13T11:00:16;15.40;99.90
59660;DHT22;45534;52.690;6.268;2023-07-13T11:02:43;15.40;99.90
59660;DHT22;45534;52.690;6.268;2023-07-13T11:05:35;15.40;99.90
59660;DHT22;45534;52.690;6.268;2023-07-13T11:10:56;16.00;99.90
59660;DHT22;45534;52.690;6.268;2023-07-13T11:16:34;16.80;99.90
59660;DHT22;45534;52.690;6.268;2023-07-13T11:21:33;17.50;99.90
59660;DHT22;45534;52.690;6.268;2023-07-13T11:24:13;17.70;99.90
59660;DHT22;45534;52.690;6.268;2023-07-13T11:26:51;17.90;99.90
59660;DHT22;45534;52.690;6.268;2023-07-13T11:31:52;18.60;99.90
59660;DHT22;45534;52.690;6.268;2023-07-13T11:34:24;18.80;99.90
59660;DHT22;45534;52.690;6.268;2023-07-13T11:36:51;18.90;99.90
59660;DHT22;45534;52.690;6.268;2023-07-13T11:39:28;19.10;99.90
59660;DHT22;45534;52.690;6.268;2023-07-13T11:42:05;19.30;99.90
59660;DHT22;45534;52.690;6.268;2023-07-13T11:44:32;19.50;99.90
59660;DHT22;45534;52.690;6.268;2023-07-13T11:47:00;19.70;99.90
59660;DHT22;45534;52.690;6.268;2023-07-13T11:49:42;20.00;99.90
59660;DHT22;45534;52.690;6.268;2023-07-13T11:52:21;20.00;99.90
59660;DHT22;45534;52.690;6.268;2023-07-13T11:54:52;20.20;99.90
59660;DHT22;45534;52.690;6.268;2023-07-13T11:57:58;20.50;99.90
59660;DHT22;45534;52.690;6.268;2023-07-13T12:00:28;20.60;99.90
59660;DHT22;45534;52.690;6.268;2023-07-13T12:02:57;20.80;99.90
59660;DHT22;45534;52.690;6.268;2023-07-13T12:05:24;21.00;99.90
59660;DHT22;45534;52.690;6.268;2023-07-13T12:07:51;21.30;99.90
59660;DHT22;45534;52.690;6.268;2023-07-13T12:12:58;21.40;99.90
59660;DHT22;45534;52.690;6.268;2023-07-13T12:15:45;21.40;99.90
59660;DHT22;45534;52.690;6.268;2023-07-13T12:18:18;21.70;99.90
59660;DHT22;45534;52.690;6.268;2023-07-13T12:20:45;21.90;99.90
59660;DHT22;45534;52.690;6.268;2023-07-13T12:23:25;21.80;99.90
59660;DHT22;45534;52.690;6.268;2023-07-13T12:25:53;21.50;99.90
59660;DHT22;45534;52.690;6.268;2023-07-13T12:28:21;21.30;99.90
59660;DHT22;45534;52.690;6.268;2023-07-13T12:30:48;21.30;99.90
59660;DHT22;45534;52.690;6.268;2023-07-13T12:33:16;21.40;99.90
59660;DHT22;45534;52.690;6.268;2023-07-13T12:35:47;21.50;99.90
59660;DHT22;45534;52.690;6.268;2023-07-13T12:38:13;21.70;99.90
59660;DHT22;45534;52.690;6.268;2023-07-13T12:40:39;21.80;99.90
59660;DHT22;45534;52.690;6.268;2023-07-13T12:43:11;21.90;99.90
59660;DHT22;45534;52.690;6.268;2023-07-13T12:45:38;22.00;99.90
59660;DHT22;45534;52.690;6.268;2023-07-13T12:48:14;22.20;99.90
59660;DHT22;45534;52.690;6.268;2023-07-13T12:50:43;22.30;99.90
59660;DHT22;45534;52.690;6.268;2023-07-13T12:53:18;22.40;99.90
59660;DHT22;45534;52.690;6.268;2023-07-13T12:55:53;22.60;99.90
59660;DHT22;45534;52.690;6.268;2023-07-13T12:58:37;22.80;99.90
59660;DHT22;45534;52.690;6.268;2023-07-13T13:01:04;22.80;99.50
59660;DHT22;45534;52.690;6.268;2023-07-13T13:03:33;22.90;99.90
59660;DHT22;45534;52.690;6.268;2023-07-13T13:06:00;23.10;99.90
59660;DHT22;45534;52.690;6.268;2023-07-13T13:08:29;23.10;99.90
59660;DHT22;45534;52.690;6.268;2023-07-13T13:10:55;23.30;99.90
59660;DHT22;45534;52.690;6.268;2023-07-13T13:13:20;23.30;99.90
59660;DHT22;45534;52.690;6.268;2023-07-13T13:15:47;23.20;99.90
59660;DHT22;45534;52.690;6.268;2023-07-13T13:18:21;23.20;99.90
59660;DHT22;45534;52.690;6.268;2023-07-13T13:20:48;23.40;99.90
59660;DHT22;45534;52.690;6.268;2023-07-13T13:23:19;23.70;99.90
59660;DHT22;45534;52.690;6.268;2023-07-13T13:25:50;24.00;99.90
59660;DHT22;45534;52.690;6.268;2023-07-13T13:28:19;24.00;99.90
59660;DHT22;45534;52.690;6.268;2023-07-13T13:30:47;24.00;99.90
59660;DHT22;45534;52.690;6.268;2023-07-13T13:33:16;23.70;99.90
59660;DHT22;45534;52.690;6.268;2023-07-13T13:35:43;23.50;99.90
59660;DHT22;45534;52.690;6.268;2023-07-13T13:38:15;23.70;99.90
59660;DHT22;45534;52.690;6.268;2023-07-13T13:40:42;23.70;99.90
59660;DHT22;45534;52.690;6.268;2023-07-13T13:43:20;23.80;99.90
59660;DHT22;45534;52.690;6.268;2023-07-13T13:45:46;23.80;99.90
59660;DHT22;45534;52.690;6.268;2023-07-13T13:48:18;23.70;99.90
59660;DHT22;45534;52.690;6.268;2023-07-13T13:50:44;23.50;99.90
59660;DHT22;45534;52.690;6.268;2023-07-13T13:53:11;23.70;99.90
59660;DHT22;45534;52.690;6.268;2023-07-13T13:55:38;24.00;99.90
59660;DHT22;45534;52.690;6.268;2023-07-13T13:58:04;24.10;99.90
59660;DHT22;45534;52.690;6.268;2023-07-13T14:00:30;24.20;99.90
59660;DHT22;45534;52.690;6.268;2023-07-13T14:02:56;24.00;99.90
59660;DHT22;45534;52.690;6.268;2023-07-13T14:05:25;24.10;99.90
59660;DHT22;45534;52.690;6.268;2023-07-13T14:07:52;24.10;99.90
59660;DHT22;45534;52.690;6.268;2023-07-13T14:10:19;24.10;99.00
59660;DHT22;45534;52.690;6.268;2023-07-13T14:12:55;24.00;97.30
59660;DHT22;45534;52.690;6.268;2023-07-13T14:17:49;24.30;98.10
59660;DHT22;45534;52.690;6.268;2023-07-13T14:20:16;24.50;98.80
59660;DHT22;45534;52.690;6.268;2023-07-13T14:22:42;24.80;98.10
59660;DHT22;45534;52.690;6.268;2023-07-13T14:25:12;24.90;97.60
59660;DHT22;45534;52.690;6.268;2023-07-13T14:27:39;24.80;96.40
59660;DHT22;45534;52.690;6.268;2023-07-13T14:30:23;24.40;95.60
59660;DHT22;45534;52.690;6.268;2023-07-13T14:32:48;24.40;94.50
59660;DHT22;45534;52.690;6.268;2023-07-13T14:35:19;24.40;96.40
59660;DHT22;45534;52.690;6.268;2023-07-13T14:37:45;24.40;96.30
59660;DHT22;45534;52.690;6.268;2023-07-13T14:40:24;24.60;96.60
59660;DHT22;45534;52.690;6.268;2023-07-13T14:42:50;24.80;97.00
59660;DHT22;45534;52.690;6.268;2023-07-13T14:45:18;24.70;95.70
59660;DHT22;45534;52.690;6.268;2023-07-13T14:47:45;24.20;94.50
59660;DHT22;45534;52.690;6.268;2023-07-13T14:50:16;23.80;95.50
59660;DHT22;45534;52.690;6.268;2023-07-13T14:52:43;23.40;96.50
59660;DHT22;45534;52.690;6.268;2023-07-13T14:55:16;23.00;97.60
59660;DHT22;45534;52.690;6.268;2023-07-13T14:57:43;22.70;97.20
59660;DHT22;45534;52.690;6.268;2023-07-13T15:00:20;22.50;99.00
59660;DHT22;45534;52.690;6.268;2023-07-13T15:02:55;22.40;99.60
59660;DHT22;45534;52.690;6.268;2023-07-13T15:05:25;22.40;99.50
59660;DHT22;45534;52.690;6.268;2023-07-13T15:07:52;22.40;99.90
59660;DHT22;45534;52.690;6.268;2023-07-13T15:10:23;22.70;99.90
59660;DHT22;45534;52.690;6.268;2023-07-13T15:12:57;22.80;99.90
59660;DHT22;45534;52.690;6.268;2023-07-13T15:15:23;23.10;99.50
59660;DHT22;45534;52.690;6.268;2023-07-13T15:17:48;23.20;98.90
59660;DHT22;45534;52.690;6.268;2023-07-13T15:20:24;23.20;99.90
59660;DHT22;45534;52.690;6.268;2023-07-13T15:22:51;23.40;99.90
59660;DHT22;45534;52.690;6.268;2023-07-13T15:25:22;23.40;99.90
59660;DHT22;45534;52.690;6.268;2023-07-13T15:27:48;23.10;98.10
59660;DHT22;45534;52.690;6.268;2023-07-13T15:30:14;22.80;99.30
59660;DHT22;45534;52.690;6.268;2023-07-13T15:32:44;22.70;99.90
59660;DHT22;45534;52.690;6.268;2023-07-13T15:35:15;23.00;99.80
59660;DHT22;45534;52.690;6.268;2023-07-13T15:37:41;23.20;98.60
59660;DHT22;45534;52.690;6.268;2023-07-13T15:40:08;23.40;98.10
59660;DHT22;45534;52.690;6.268;2023-07-13T15:42:34;23.60;98.90
59660;DHT22;45534;52.690;6.268;2023-07-13T15:45:01;23.80;99.90
59660;DHT22;45534;52.690;6.268;2023-07-13T15:47:30;23.80;98.80
59660;DHT22;45534;52.690;6.268;2023-07-13T15:49:56;23.70;97.00
59660;DHT22;45534;52.690;6.268;2023-07-13T15:52:23;24.00;98.10
59660;DHT22;45534;52.690;6.268;2023-07-13T15:54:50;24.30;96.20
59660;DHT22;45534;52.690;6.268;2023-07-13T15:57:16;24.70;96.50
59660;DHT22;45534;52.690;6.268;2023-07-13T15:59:44;24.80;95.00
59660;DHT22;45534;52.690;6.268;2023-07-13T16:02:17;24.80;94.10
59660;DHT22;45534;52.690;6.268;2023-07-13T16:04:43;25.00;94.10
59660;DHT22;45534;52.690;6.268;2023-07-13T16:07:10;25.40;93.90